Time;durP1;ratioP1;P1;durP2;ratioP2;P2;SDS_P1;SDS_P2;PMS_P1;PMS_P2;Temp;Humidity;BMP_temperature;BMP_pressure;BME280_temperature;BME280_humidity;BME280_pressure;Samples;Min_cycle;Max_cycle;Signal;HPM_P1;HPM_P2
2021/07/24 00:02:15;;;;;;;5.85;3.73;;;;;;;28.65;40.10;100854.63;128528;1084;64128;-86
2021/07/24 00:04:41;;;;;;;5.60;3.63;;;;;;;28.64;40.11;100856.50;128506;1084;64131;-87
2021/07/24 00:07:23;;;;;;;5.63;3.63;;;;;;;28.64;40.17;100856.50;128519;1084;64304;-85
2021/07/24 00:09:50;;;;;;;6.25;3.53;;;;;;;28.64;40.12;100856.50;128478;1084;64281;-84
2021/07/24 00:12:39;;;;;;;5.37;3.50;;;;;;;28.64;40.44;100848.35;128520;1084;64368;-85
2021/07/24 00:15:12;;;;;;;5.50;3.37;;;;;;;28.63;40.13;100841.17;127999;1087;64105;-85
2021/07/24 00:17:42;;;;;;;5.73;3.57;;;;;;;28.65;40.36;100849.20;128005;1087;64102;-84
2021/07/24 00:20:10;;;;;;;5.27;3.57;;;;;;;28.64;40.44;100856.50;128018;1086;64137;-85
2021/07/24 00:22:45;;;;;;;5.40;3.70;;;;;;;28.63;40.23;100845.73;128385;1086;64211;-85
2021/07/24 00:25:13;;;;;;;5.73;3.77;;;;;;;28.63;40.35;100843.89;128332;1087;64137;-86
2021/07/24 00:27:46;;;;;;;5.53;3.60;;;;;;;28.63;40.22;100838.46;128016;1087;64144;-85
2021/07/24 00:30:21;;;;;;;6.40;3.80;;;;;;;28.63;40.49;100846.61;128360;1087;64135;-85
2021/07/24 00:32:53;;;;;;;5.47;3.70;;;;;;;28.62;40.56;100850.33;128394;1085;64665;-85
2021/07/24 00:35:22;;;;;;;6.47;3.50;;;;;;;28.63;40.37;100843.02;127992;1087;64211;-85
2021/07/24 00:38:20;;;;;;;5.13;3.37;;;;;;;28.63;40.51;100851.17;128046;1085;64160;-85
2021/07/24 00:40:58;;;;;;;5.20;3.50;;;;;;;28.62;40.45;100844.05;127895;1090;64237;-84
2021/07/24 00:43:29;;;;;;;7.73;3.70;;;;;;;28.62;40.51;100844.90;127764;1089;64054;-85
2021/07/24 00:45:58;;;;;;;6.73;3.70;;;;;;;28.62;40.41;100844.90;127791;1090;64424;-84
2021/07/24 00:48:38;;;;;;;7.17;3.40;;;;;;;28.62;40.40;100844.90;127767;1090;64176;-85
2021/07/24 00:51:08;;;;;;;5.27;3.20;;;;;;;28.63;40.53;100845.73;127723;1090;64478;-84
2021/07/24 00:53:38;;;;;;;4.87;3.40;;;;;;;28.63;40.52;100853.88;128001;1086;64128;-84
2021/07/24 00:56:05;;;;;;;6.27;3.10;;;;;;;28.62;40.41;100844.90;127999;1087;64224;-85
2021/07/24 00:58:46;;;;;;;5.47;3.70;;;;;;;28.63;40.53;100851.17;128022;1087;64136;-85
2021/07/24 01:01:21;;;;;;;6.07;3.60;;;;;;;28.62;40.58;100838.63;128024;1087;64169;-84
2021/07/24 01:03:51;;;;;;;5.33;3.47;;;;;;;28.62;40.90;100841.34;128048;1087;64179;-85
2021/07/24 01:06:20;;;;;;;5.73;3.60;;;;;;;28.62;40.85;100844.05;128394;1086;64136;-85
2021/07/24 01:08:57;;;;;;;6.57;3.70;;;;;;;28.61;40.57;100843.19;128014;1087;64142;-85
2021/07/24 01:11:27;;;;;;;;;;;;;;;28.60;40.76;100836.07;128028;1087;64566;-85
2021/07/24 01:13:53;;;;;;;6.03;3.40;;;;;;;28.59;40.64;100831.64;128394;1087;64266;-85
2021/07/24 01:16:20;;;;;;;4.57;3.53;;;;;;;28.58;40.67;100830.77;128016;1087;64103;-85
2021/07/24 01:18:46;;;;;;;4.97;3.40;;;;;;;28.59;41.04;100827.05;128739;1083;64353;-85
2021/07/24 01:21:28;;;;;;;6.07;3.83;;;;;;;28.60;40.81;100828.77;128495;1082;64133;-85
2021/07/24 01:23:55;;;;;;;4.93;3.40;;;;;;;28.59;40.83;100834.36;128551;1084;64275;-84
2021/07/24 01:26:48;;;;;;;5.50;3.70;;;;;;;28.59;40.77;100829.77;128495;1082;64140;-85
2021/07/24 01:29:20;;;;;;;5.03;3.27;;;;;;;28.59;40.73;100831.64;128891;1084;64111;-84
2021/07/24 01:31:58;;;;;;;5.90;3.47;;;;;;;28.59;40.97;100835.20;128530;1084;64173;-84
2021/07/24 01:34:24;;;;;;;4.90;3.40;;;;;;;28.59;40.88;100829.77;128463;1082;64128;-85
2021/07/24 01:36:59;;;;;;;5.37;3.53;;;;;;;28.59;40.72;100832.48;128454;1084;64286;-85
2021/07/24 01:39:28;;;;;;;4.97;3.57;;;;;;;28.59;40.82;100824.34;128910;1084;64559;-85
2021/07/24 01:41:55;;;;;;;5.70;3.60;;;;;;;28.58;40.73;100825.34;128505;1084;64134;-84
2021/07/24 01:44:27;;;;;;;6.00;3.40;;;;;;;28.59;40.96;100832.48;128525;1084;64131;-85
2021/07/24 01:46:57;;;;;;;4.90;3.03;;;;;;;28.59;41.13;100827.05;128501;1084;64163;-85
2021/07/24 01:55:14;;;;;;;5.10;3.33;;;;;;;28.58;40.99;100844.35;128927;1084;64134;-84
2021/07/24 01:57:46;;;;;;;4.87;3.10;;;;;;;28.58;41.16;100836.20;128513;1084;64131;-85
2021/07/24 02:00:13;;;;;;;4.10;3.10;;;;;;;28.58;41.11;100827.22;128937;1084;64134;-85
2021/07/24 02:03:01;;;;;;;5.37;3.13;;;;;;;28.58;41.04;100833.48;128052;1087;64146;-84
2021/07/24 02:05:34;;;;;;;6.03;3.73;;;;;;;28.59;41.07;100829.77;128016;1087;64226;-85
2021/07/24 02:08:10;;;;;;;6.43;3.40;;;;;;;28.59;41.24;100834.36;128022;1087;64160;-85
2021/07/24 02:10:38;;;;;;;4.57;3.03;;;;;;;28.59;40.99;100831.64;127980;1087;64196;-84
2021/07/24 02:13:07;;;;;;;5.50;3.35;;;;;;;28.59;40.99;100831.64;128008;1087;64163;-85
2021/07/24 02:15:37;;;;;;;5.47;3.50;;;;;;;28.58;41.32;100836.20;128016;1087;64382;-85
2021/07/24 02:18:11;;;;;;;6.33;3.50;;;;;;;28.59;41.36;100834.36;127984;1085;64588;-86
2021/07/24 02:20:56;;;;;;;;;;;;;;;;;;;;;
2021/07/24 02:23:33;;;;;;;;;;;;;;;28.57;41.19;100834.52;128047;1087;61973;-85
2021/07/24 02:26:11;;;;;;;7.37;3.43;;;;;;;28.56;41.33;100840.95;127985;1087;64147;-84
2021/07/24 02:28:41;;;;;;;5.75;3.58;;;;;;;28.56;41.12;100829.23;128083;1086;64211;-86
2021/07/24 02:31:08;;;;;;;6.50;3.60;;;;;;;28.56;41.02;100832.81;127977;1087;64639;-85
2021/07/24 02:33:37;;;;;;;6.13;3.50;;;;;;;28.56;41.08;100832.81;128012;1087;64131;-85
2021/07/24 02:36:09;;;;;;;5.23;3.60;;;;;;;28.55;41.32;100828.38;128001;1087;64102;-85
2021/07/24 02:38:36;;;;;;;6.57;3.37;;;;;;;28.56;41.10;100830.09;128047;1087;64141;-84
2021/07/24 02:41:11;;;;;;;7.13;3.40;;;;;;;28.56;41.37;100827.38;128262;1084;64155;-85
2021/07/24 02:43:37;;;;;;;4.53;3.03;;;;;;;28.57;41.09;100828.22;128509;1084;64125;-85
2021/07/24 02:46:13;;;;;;;4.90;3.40;;;;;;;28.56;41.24;100824.67;128562;1084;64400;-84
2021/07/24 02:48:39;;;;;;;5.57;3.10;;;;;;;28.57;41.17;100828.22;128701;1083;64148;-84
2021/07/24 02:51:05;;;;;;;5.20;3.23;;;;;;;28.56;41.10;100826.51;128583;1084;64137;-82
2021/07/24 02:53:31;;;;;;;6.03;3.40;;;;;;;28.58;41.42;100835.36;128561;1084;64105;-84
2021/07/24 02:56:00;;;;;;;5.70;3.37;;;;;;;28.58;41.07;100829.94;128948;1082;64146;-85
2021/07/24 02:58:26;;;;;;;5.23;3.53;;;;;;;28.57;41.39;100828.22;128918;1084;64207;-85
2021/07/24 03:00:52;;;;;;;5.43;3.37;;;;;;;28.59;40.88;100837.08;128903;1083;64149;-85
2021/07/24 03:03:27;;;;;;;4.83;3.13;;;;;;;28.58;41.38;100843.52;128888;1083;64272;-85
2021/07/24 03:05:56;;;;;;;5.63;3.30;;;;;;;28.58;41.39;100832.65;128523;1084;64339;-84
2021/07/24 03:08:25;;;;;;;5.03;3.20;;;;;;;28.58;41.38;100827.22;128540;1084;64125;-84
2021/07/24 03:10:51;;;;;;;5.33;3.37;;;;;;;28.57;41.23;100826.38;128520;1084;64163;-85
2021/07/24 03:13:30;;;;;;;5.13;3.70;;;;;;;28.57;41.37;100828.22;128508;1084;64131;-85
2021/07/24 03:16:18;;;;;;;;;;;;;;;;;;;;;
2021/07/24 03:18:51;;;;;;;6.20;3.60;;;;;;;28.57;41.46;100834.52;128869;1082;64138;-85
2021/07/24 03:21:20;;;;;;;4.57;3.20;;;;;;;28.57;41.32;100831.81;128459;1084;64155;-85
2021/07/24 03:23:47;;;;;;;6.73;3.13;;;;;;;28.57;41.39;100841.80;128884;1084;64211;-85
2021/07/24 03:26:14;;;;;;;5.63;3.27;;;;;;;28.57;41.21;100848.10;128521;1084;64096;-86
2021/07/24 03:28:52;;;;;;;5.80;3.50;;;;;;;28.57;41.58;100849.95;128907;1084;64134;-85
2021/07/24 03:31:28;;;;;;;5.17;3.33;;;;;;;28.57;41.60;100852.66;128925;1084;64185;-84
2021/07/24 03:33:57;;;;;;;5.60;3.20;;;;;;;28.56;41.34;100845.52;128506;1083;62131;-84
2021/07/24 03:36:23;;;;;;;5.53;3.60;;;;;;;28.56;41.15;100849.11;128933;1084;64139;-85
2021/07/24 03:39:18;;;;;;;;;;;;;;;;;;;;;
2021/07/24 03:41:44;;;;;;;4.77;3.20;;;;;;;28.56;41.50;100857.25;128568;1084;64286;-84
2021/07/24 03:44:21;;;;;;;4.70;3.27;;;;;;;28.56;41.37;100856.38;128903;1084;64147;-84
2021/07/24 03:46:51;;;;;;;5.65;3.35;;;;;;;28.56;41.30;100857.25;128924;1084;64240;-85
2021/07/24 03:49:17;;;;;;;5.83;3.17;;;;;;;28.57;41.37;100861.68;128391;1084;64353;-85
2021/07/24 03:52:18;;;;;;;5.57;3.30;;;;;;;28.56;41.34;100868.11;128378;1084;64131;-86
2021/07/24 03:54:44;;;;;;;5.33;3.07;;;;;;;28.56;41.50;100861.81;128262;1087;64106;-85
2021/07/24 03:57:19;;;;;;;5.43;3.30;;;;;;;28.57;41.21;100867.11;128060;1087;64154;-84
2021/07/24 03:59:46;;;;;;;6.07;3.60;;;;;;;28.57;41.34;100871.67;128390;1087;64128;-85
2021/07/24 04:02:28;;;;;;;5.70;3.30;;;;;;;28.56;41.30;100867.24;128034;1087;64176;-85
2021/07/24 04:05:04;;;;;;;6.33;3.70;;;;;;;28.56;41.42;100865.41;128375;1086;64139;-85
2021/07/24 04:07:39;;;;;;;5.03;3.50;;;;;;;28.56;41.62;100862.69;127958;1087;64331;-84
2021/07/24 04:10:28;;;;;;;4.60;3.03;;;;;;;28.56;41.32;100865.41;127875;1090;64109;-84
2021/07/24 04:13:17;;;;;;;5.80;3.47;;;;;;;28.56;41.60;100867.24;127913;1090;64141;-84
2021/07/24 04:15:54;;;;;;;4.77;3.20;;;;;;;28.56;41.54;100861.81;127896;1090;64205;-84
2021/07/24 04:18:33;;;;;;;4.58;3.20;;;;;;;28.55;41.35;100862.84;127906;1090;64149;-84
2021/07/24 04:21:09;;;;;;;5.87;3.30;;;;;;;28.56;41.42;100862.69;127912;1089;64112;-85
2021/07/24 04:23:57;;;;;;;4.83;3.13;;;;;;;28.56;41.47;100859.97;127921;1089;64205;-84
2021/07/24 04:26:32;;;;;;;4.93;3.23;;;;;;;28.56;41.43;100872.67;127894;1089;64247;-85
2021/07/24 04:28:59;;;;;;;5.37;3.40;;;;;;;28.56;41.43;100867.24;127918;1088;64144;-85
2021/07/24 04:31:38;;;;;;;5.17;3.30;;;;;;;28.57;41.57;100868.95;127974;1087;64665;-85
2021/07/24 04:34:26;;;;;;;6.03;3.33;;;;;;;28.57;41.64;100875.26;128231;1087;64141;-85
2021/07/24 04:36:52;;;;;;;5.23;3.27;;;;;;;28.56;41.38;100878.11;128059;1085;64163;-85
2021/07/24 04:39:28;;;;;;;5.30;3.30;;;;;;;28.57;41.46;100877.10;128402;1087;64134;-84
2021/07/24 04:41:58;;;;;;;4.90;3.17;;;;;;;28.57;41.59;100877.10;128360;1086;61775;-84
2021/07/24 04:44:33;;;;;;;4.85;3.40;;;;;;;28.57;41.44;100887.97;128300;1087;64161;-85
2021/07/24 04:47:02;;;;;;;5.67;3.23;;;;;;;28.56;41.78;100878.98;128309;1084;64363;-81
2021/07/24 04:49:31;;;;;;;5.77;3.30;;;;;;;28.57;41.67;100877.98;128357;1083;64168;-85
2021/07/24 04:52:01;;;;;;;4.68;3.08;;;;;;;28.57;41.65;100879.81;128369;1084;64154;-84
2021/07/24 04:54:28;;;;;;;5.07;3.20;;;;;;;28.58;41.42;100879.66;128901;1082;64152;-82
2021/07/24 04:56:58;;;;;;;5.43;3.03;;;;;;;28.58;41.62;100884.25;128391;1084;64131;-83
2021/07/24 04:59:25;;;;;;;5.17;3.20;;;;;;;28.57;41.94;100872.55;128402;1083;64099;-82
2021/07/24 05:01:51;;;;;;;5.17;3.07;;;;;;;28.58;41.93;100878.81;128351;1083;64211;-82
2021/07/24 05:04:22;;;;;;;5.23;3.20;;;;;;;28.60;41.57;100876.81;128921;1082;64173;-84
2021/07/24 05:06:59;;;;;;;5.73;3.23;;;;;;;28.59;41.67;100878.66;128489;1084;64135;-85
2021/07/24 05:09:25;;;;;;;5.33;3.43;;;;;;;28.60;41.33;100879.52;128783;1084;64284;-84
2021/07/24 05:11:52;;;;;;;4.80;3.20;;;;;;;28.60;41.39;100874.09;128480;1082;64301;-84
2021/07/24 05:14:20;;;;;;;5.13;3.47;;;;;;;28.59;41.52;100881.38;128470;1084;64128;-84
2021/07/24 05:16:50;;;;;;;5.67;3.47;;;;;;;28.60;41.77;100876.81;128507;1084;64131;-84
2021/07/24 05:19:23;;;;;;;5.30;3.15;;;;;;;28.59;41.86;100886.80;128906;1083;64201;-85
2021/07/24 05:22:11;;;;;;;4.57;3.00;;;;;;;28.59;41.59;100884.08;128885;1082;64106;-84
2021/07/24 05:24:48;;;;;;;;;;;;;;;;;;;;;
2021/07/24 05:27:17;;;;;;;4.93;3.40;;;;;;;28.59;41.67;100892.23;128863;1084;64095;-84
2021/07/24 05:29:56;;;;;;;;;;;;;;;;;;;;;
2021/07/24 05:32:35;;;;;;;5.00;3.40;;;;;;;28.61;42.03;100894.78;128513;1084;64092;-85
2021/07/24 05:35:03;;;;;;;4.97;3.40;;;;;;;28.62;41.86;100893.78;128912;1084;64111;-85
2021/07/24 05:37:38;;;;;;;4.93;3.13;;;;;;;28.63;42.05;100889.19;128486;1084;64093;-84
2021/07/24 05:40:20;;;;;;;4.93;3.20;;;;;;;28.62;41.97;100891.06;128494;1082;64128;-85
2021/07/24 05:42:47;;;;;;;4.50;3.00;;;;;;;28.64;42.12;100893.63;128923;1084;64003;-86
2021/07/24 05:45:29;;;;;;;5.20;3.13;;;;;;;28.63;42.02;100891.91;128531;1084;64575;-85
2021/07/24 05:47:55;;;;;;;6.20;3.13;;;;;;;28.64;41.80;100890.91;128911;1084;64140;-84
2021/07/24 05:50:38;;;;;;;5.63;3.40;;;;;;;28.64;41.97;100899.05;128542;1084;64744;-85
2021/07/24 05:53:14;;;;;;;;;;;;;;;;;;;;;
2021/07/24 05:55:50;;;;;;;5.13;3.40;;;;;;;28.64;42.14;100902.67;128902;1082;64386;-85
2021/07/24 05:58:22;;;;;;;4.90;3.10;;;;;;;28.64;42.27;100896.34;128480;1084;64125;-85
2021/07/24 06:00:58;;;;;;;5.27;3.10;;;;;;;28.64;42.32;100904.48;128532;1084;64096;-85
2021/07/24 06:03:27;;;;;;;5.30;3.30;;;;;;;28.66;42.15;100902.52;128912;1084;64639;-84
2021/07/24 06:05:57;;;;;;;5.10;3.00;;;;;;;28.65;42.29;100901.64;128533;1084;64135;-85
2021/07/24 06:08:34;;;;;;;5.60;3.17;;;;;;;28.67;42.16;100904.23;128476;1084;64138;-85
2021/07/24 06:11:11;;;;;;;5.45;3.25;;;;;;;28.67;42.21;100899.63;128491;1084;64134;-85
2021/07/24 06:13:41;;;;;;;4.33;3.13;;;;;;;28.67;42.40;100904.23;128482;1084;64336;-85
2021/07/24 06:16:20;;;;;;;5.53;3.20;;;;;;;28.67;42.19;100899.63;128493;1083;63464;-84
2021/07/24 06:18:55;;;;;;;4.28;3.00;;;;;;;28.68;42.25;100898.63;128520;1084;64307;-85
2021/07/24 06:21:26;;;;;;;5.30;3.33;;;;;;;28.70;42.30;100898.47;128526;1082;64172;-85
2021/07/24 06:23:56;;;;;;;6.43;3.20;;;;;;;28.71;42.15;100902.89;128481;1082;64095;-85
2021/07/24 06:26:28;;;;;;;4.90;3.17;;;;;;;28.71;41.98;100900.17;128934;1084;64205;-85
2021/07/24 06:28:54;;;;;;;5.20;3.30;;;;;;;28.72;42.47;100902.73;128442;1084;64588;-84
2021/07/24 06:31:26;;;;;;;6.20;3.50;;;;;;;28.72;42.42;100897.30;128549;1084;64129;-84
2021/07/24 06:33:55;;;;;;;;;;;;;;;28.72;42.42;100907.30;128946;1084;64139;-85
2021/07/24 06:36:24;;;;;;;4.37;2.97;;;;;;;28.71;42.34;100905.61;128557;1084;64164;-85
2021/07/24 06:38:59;;;;;;;5.30;3.10;;;;;;;28.70;42.32;100906.62;128948;1084;63617;-84
2021/07/24 06:41:26;;;;;;;4.13;2.87;;;;;;;28.71;42.39;100908.33;129037;1084;64254;-85
2021/07/24 06:43:54;;;;;;;4.73;3.30;;;;;;;28.70;42.73;100912.05;128685;1083;63987;-84
2021/07/24 06:46:34;;;;;;;6.63;3.40;;;;;;;28.71;42.48;100906.45;128605;1084;64160;-85
2021/07/24 06:49:04;;;;;;;4.80;3.30;;;;;;;28.73;42.42;100909.01;128530;1084;64387;-85
2021/07/24 06:51:39;;;;;;;5.40;3.10;;;;;;;28.72;42.61;100910.88;128956;1083;63971;-85
2021/07/24 06:54:09;;;;;;;5.60;3.13;;;;;;;28.72;42.49;100912.72;128496;1084;64085;-86
2021/07/24 06:56:35;;;;;;;6.13;3.20;;;;;;;28.72;42.31;100913.59;128880;1084;64247;-84
2021/07/24 06:59:01;;;;;;;4.53;3.30;;;;;;;28.72;42.01;100913.59;128458;1084;64211;-85
2021/07/24 07:01:28;;;;;;;5.30;3.40;;;;;;;28.72;42.33;100912.72;128932;1084;64128;-86
2021/07/24 07:04:07;;;;;;;5.57;3.40;;;;;;;28.71;41.94;100909.17;128492;1084;64146;-85
2021/07/24 07:06:42;;;;;;;6.20;3.50;;;;;;;28.72;41.76;100912.72;128544;1084;64098;-86
2021/07/24 07:09:12;;;;;;;6.57;3.70;;;;;;;28.71;41.60;100914.60;128509;1082;64131;-85
2021/07/24 07:11:59;;;;;;;6.07;3.50;;;;;;;28.72;41.79;100915.44;128538;1083;64163;-85
2021/07/24 07:14:28;;;;;;;5.40;3.47;;;;;;;28.72;41.32;100905.45;128914;1084;64150;-85
2021/07/24 07:17:06;;;;;;;6.30;3.40;;;;;;;28.72;40.92;100910.01;128450;1084;64170;-85
2021/07/24 07:19:36;;;;;;;7.20;3.67;;;;;;;28.70;41.24;100915.60;128489;1084;64295;-85
2021/07/24 07:22:13;;;;;;;7.43;3.50;;;;;;;28.71;41.00;100921.91;128511;1084;64223;-85
2021/07/24 07:24:49;;;;;;;6.47;3.53;;;;;;;28.71;40.62;100917.31;128896;1084;63904;-84
2021/07/24 07:27:34;;;;;;;5.30;3.43;;;;;;;28.71;40.79;100911.05;128580;1084;64134;-85
2021/07/24 07:30:24;;;;;;;6.18;3.50;;;;;;;28.70;40.50;100912.05;128521;1084;64208;-85
2021/07/24 07:33:02;;;;;;;;;;;;;;;;;;;;;
2021/07/24 07:35:37;;;;;;;6.33;3.83;;;;;;;28.72;40.18;100915.44;128534;1084;64133;-85
2021/07/24 07:38:03;;;;;;;7.40;3.47;;;;;;;28.71;40.29;100909.17;128524;1083;64131;-84
2021/07/24 07:40:36;;;;;;;6.33;3.53;;;;;;;28.72;39.90;100907.30;128492;1084;64233;-85
2021/07/24 07:43:23;;;;;;;6.07;3.70;;;;;;;28.72;39.63;100912.72;128893;1084;64129;-85
2021/07/24 07:45:58;;;;;;;5.50;3.50;;;;;;;28.72;39.77;100912.72;128461;1084;64137;-85
2021/07/24 07:48:24;;;;;;;5.30;3.37;;;;;;;28.73;39.86;100914.44;128891;1084;64294;-86
2021/07/24 07:51:08;;;;;;;7.60;3.80;;;;;;;28.73;39.73;100919.88;128489;1083;64208;-85
2021/07/24 07:53:40;;;;;;;5.93;3.30;;;;;;;28.73;39.63;100915.31;128881;1082;64520;-85
2021/07/24 07:56:16;;;;;;;5.50;3.30;;;;;;;28.73;39.24;100915.31;128429;1084;63945;-85
2021/07/24 07:58:42;;;;;;;5.97;3.40;;;;;;;28.74;39.18;100916.15;128433;1083;64147;-84
2021/07/24 08:01:16;;;;;;;6.87;3.40;;;;;;;28.73;39.18;100922.59;128486;1082;64118;-84
2021/07/24 08:03:43;;;;;;;4.93;3.17;;;;;;;28.74;38.88;100916.99;128465;1082;64102;-84
2021/07/24 08:06:09;;;;;;;6.13;3.40;;;;;;;28.75;38.91;100918.70;128714;1081;64279;-84
2021/07/24 08:08:35;;;;;;;6.43;3.50;;;;;;;28.76;38.68;100911.40;128336;1084;64163;-84
2021/07/24 08:11:02;;;;;;;5.67;3.30;;;;;;;28.76;38.71;100920.42;128343;1082;64198;-85
2021/07/24 08:13:28;;;;;;;5.37;3.30;;;;;;;28.77;38.72;100918.54;128359;1083;64245;-84
2021/07/24 08:15:54;;;;;;;6.03;3.33;;;;;;;28.78;38.68;100914.82;128356;1084;62480;-87
2021/07/24 08:18:21;;;;;;;5.70;3.03;;;;;;;28.79;38.29;100927.41;128866;1084;64125;-84
2021/07/24 08:20:51;;;;;;;5.67;3.10;;;;;;;28.80;38.47;100926.40;128528;1084;64170;-84
2021/07/24 08:23:24;;;;;;;5.70;3.03;;;;;;;28.81;38.79;100928.08;128914;1084;63981;-84
2021/07/24 08:25:50;;;;;;;5.20;3.40;;;;;;;28.82;38.49;100927.08;128465;1082;64250;-85
2021/07/24 08:28:42;;;;;;;5.37;3.57;;;;;;;28.81;38.67;100921.80;128511;1084;64134;-85
2021/07/24 08:31:11;;;;;;;5.77;3.00;;;;;;;28.81;38.42;100925.36;127996;1087;64160;-85
2021/07/24 08:33:46;;;;;;;;;;;;;;;28.81;38.26;100916.38;128063;1085;64194;-85
2021/07/24 08:36:15;;;;;;;4.37;3.07;;;;;;;28.81;38.60;100919.92;128001;1087;64173;-84
2021/07/24 08:38:51;;;;;;;5.47;2.90;;;;;;;28.81;38.77;100919.09;128379;1085;64203;-85
2021/07/24 08:41:20;;;;;;;4.80;3.03;;;;;;;28.81;38.42;100911.78;128017;1087;64141;-85
2021/07/24 08:43:53;;;;;;;4.88;3.20;;;;;;;28.81;38.40;100911.78;128035;1085;64137;-85
2021/07/24 08:46:20;;;;;;;5.20;3.23;;;;;;;28.81;38.37;100908.22;128033;1086;64219;-85
2021/07/24 08:49:08;;;;;;;7.20;3.43;;;;;;;28.82;38.65;100908.06;127995;1087;64166;-84
2021/07/24 08:51:36;;;;;;;5.00;3.30;;;;;;;28.82;39.04;100913.49;128343;1087;64137;-85
2021/07/24 08:54:13;;;;;;;5.53;3.25;;;;;;;28.83;38.73;100917.05;128014;1087;64131;-85
2021/07/24 08:56:45;;;;;;;4.27;3.20;;;;;;;28.83;39.01;100920.64;128015;1087;64268;-85
2021/07/24 08:59:15;;;;;;;4.93;2.63;;;;;;;28.84;38.74;100913.33;128041;1087;64134;-84
2021/07/24 09:01:51;;;;;;;4.50;2.70;;;;;;;28.84;39.15;100908.77;128067;1086;64279;-85
2021/07/24 09:04:27;;;;;;;5.27;3.00;;;;;;;28.84;39.00;100900.62;128382;1087;64367;-85
2021/07/24 09:06:59;;;;;;;5.07;2.97;;;;;;;28.84;39.10;100906.05;128370;1087;64135;-84
2021/07/24 09:09:35;;;;;;;4.87;3.00;;;;;;;28.84;39.20;100906.05;128030;1087;64099;-84
2021/07/24 09:12:12;;;;;;;4.77;2.73;;;;;;;28.85;39.09;100907.73;128010;1087;65048;-85
2021/07/24 09:14:41;;;;;;;5.13;3.10;;;;;;;28.85;39.25;100899.58;128387;1087;64137;-83
2021/07/24 09:17:08;;;;;;;;;;;;;;;28.83;39.23;100904.34;128011;1086;64154;-84
2021/07/24 09:20:00;;;;;;;4.77;2.90;;;;;;;28.83;39.31;100898.91;128366;1087;64134;-84
2021/07/24 09:22:38;;;;;;;5.60;3.00;;;;;;;28.83;39.44;100900.75;127903;1090;64224;-85
2021/07/24 09:25:15;;;;;;;4.87;3.10;;;;;;;28.83;39.10;100898.91;127940;1089;64224;-85
2021/07/24 09:28:01;;;;;;;4.83;2.70;;;;;;;28.83;39.26;100895.31;127917;1090;65278;-85
2021/07/24 09:30:54;;;;;;;4.13;2.90;;;;;;;28.84;39.32;100903.33;127909;1089;64179;-85
2021/07/24 09:33:20;;;;;;;5.00;3.10;;;;;;;28.84;39.47;100900.62;127678;1093;64169;-85
2021/07/24 09:36:09;;;;;;;5.53;3.20;;;;;;;28.85;39.18;100893.31;127716;1092;64144;-85
2021/07/24 09:38:40;;;;;;;4.77;2.90;;;;;;;28.84;39.29;100900.62;127693;1093;64799;-85
2021/07/24 09:41:17;;;;;;;4.40;2.80;;;;;;;28.84;39.72;100895.19;127674;1092;64278;-85
2021/07/24 09:43:49;;;;;;;5.63;3.30;;;;;;;28.85;39.44;100898.73;127699;1093;64141;-85
2021/07/24 09:46:31;;;;;;;4.47;3.10;;;;;;;28.85;39.48;100898.73;127756;1093;64269;-85
2021/07/24 09:49:44;;;;;;;5.57;3.10;;;;;;;28.86;39.40;100897.73;127704;1093;64083;-86
2021/07/24 09:52:14;;;;;;;4.30;2.90;;;;;;;28.84;39.77;100892.47;127586;1093;64602;-85
2021/07/24 09:54:54;;;;;;;5.77;3.10;;;;;;;28.85;39.88;100890.59;127694;1091;64247;-85
2021/07/24 09:57:33;;;;;;;3.93;2.77;;;;;;;28.85;39.42;100882.44;127721;1093;64229;-84
2021/07/24 10:00:21;;;;;;;3.97;3.00;;;;;;;28.85;39.58;100887.88;127723;1090;64307;-83
2021/07/24 10:03:08;;;;;;;;;;;;;;;28.85;39.57;100896.02;127979;1090;64141;-85
2021/07/24 10:05:44;;;;;;;4.10;2.73;;;;;;;28.84;39.53;100883.44;127925;1090;64137;-85
2021/07/24 10:08:13;;;;;;;5.73;3.00;;;;;;;28.84;39.95;100888.88;127927;1090;64341;-85
2021/07/24 10:10:49;;;;;;;4.50;3.30;;;;;;;28.84;40.03;100889.75;128137;1087;64290;-85
2021/07/24 10:13:21;;;;;;;5.30;2.93;;;;;;;28.85;39.87;100890.59;128013;1086;64203;-85
2021/07/24 10:15:58;;;;;;;4.40;2.90;;;;;;;28.84;39.98;100887.03;127991;1087;64313;-84
2021/07/24 10:18:27;;;;;;;4.97;2.57;;;;;;;28.86;39.71;100889.59;128407;1087;64179;-84
2021/07/24 10:20:56;;;;;;;4.00;2.70;;;;;;;28.85;40.23;100887.88;128029;1087;64269;-84
2021/07/24 10:23:26;;;;;;;4.70;3.03;;;;;;;28.84;39.85;100880.73;127992;1086;64237;-84
2021/07/24 10:26:14;;;;;;;4.87;2.90;;;;;;;28.86;40.07;100881.44;128359;1087;64141;-85
2021/07/24 10:28:46;;;;;;;;;;;;;;;28.85;40.43;100877.00;128422;1086;64549;-85
2021/07/24 10:31:15;;;;;;;4.90;2.87;;;;;;;28.83;40.00;100877.17;128406;1086;64079;-84
2021/07/24 10:33:41;;;;;;;4.28;3.00;;;;;;;28.84;40.18;100887.03;128465;1087;64189;-84
2021/07/24 10:36:15;;;;;;;5.33;3.10;;;;;;;28.85;40.15;100877.84;128504;1086;64137;-83
2021/07/24 10:38:58;;;;;;;5.23;2.90;;;;;;;28.85;40.33;100869.70;128539;1087;64352;-83
2021/07/24 10:41:34;;;;;;;3.83;2.83;;;;;;;28.86;40.42;100870.56;128471;1085;64105;-84
2021/07/24 10:44:09;;;;;;;3.87;2.60;;;;;;;28.86;39.91;100871.41;128401;1087;65069;-84
2021/07/24 10:47:01;;;;;;;4.53;3.00;;;;;;;28.87;40.32;100864.13;128349;1087;64563;-84
2021/07/24 10:49:58;;;;;;;3.87;2.60;;;;;;;28.87;40.42;100869.56;128384;1087;65305;-84
2021/07/24 10:52:45;;;;;;;4.20;2.80;;;;;;;28.86;40.34;100863.26;127763;1089;64116;-86
2021/07/24 10:55:33;;;;;;;4.60;2.87;;;;;;;28.87;40.42;100866.84;127905;1089;62951;-84
2021/07/24 10:58:02;;;;;;;5.55;3.05;;;;;;;28.87;40.36;100861.41;127914;1089;64313;-84
2021/07/24 11:00:35;;;;;;;4.80;2.83;;;;;;;28.87;40.37;100872.28;127938;1090;64610;-85
2021/07/24 11:03:05;;;;;;;4.13;2.97;;;;;;;28.87;40.24;100864.13;127795;1090;64260;-85
2021/07/24 11:05:47;;;;;;;4.40;2.73;;;;;;;28.87;40.51;100862.25;127928;1090;64144;-84
2021/07/24 11:08:23;;;;;;;4.30;2.83;;;;;;;28.86;40.04;100857.82;127766;1090;64109;-85
2021/07/24 11:11:56;;;;;;;4.00;2.90;;;;;;;28.87;40.32;100855.98;127794;1090;64307;-84
2021/07/24 11:14:43;;;;;;;3.97;2.87;;;;;;;28.87;40.56;100858.69;127428;1091;64216;-84
2021/07/24 11:17:14;;;;;;;4.30;2.87;;;;;;;28.86;40.46;100855.11;127504;1092;64635;-85
2021/07/24 11:19:47;;;;;;;4.30;2.77;;;;;;;28.86;40.69;100852.39;127492;1092;64341;-84
2021/07/24 11:22:23;;;;;;;5.43;2.93;;;;;;;28.86;40.58;100855.11;127493;1093;64320;-85
2021/07/24 11:25:09;;;;;;;4.67;2.90;;;;;;;28.86;40.57;100857.82;127541;1092;64313;-85
2021/07/24 11:27:46;;;;;;;5.17;2.83;;;;;;;28.87;40.79;100859.53;127492;1093;64261;-84
2021/07/24 11:30:13;;;;;;;5.70;3.10;;;;;;;28.88;40.41;100863.09;127567;1090;64224;-85
2021/07/24 11:32:52;;;;;;;4.50;2.80;;;;;;;28.88;40.31;100863.96;127842;1087;64608;-85
2021/07/24 11:35:29;;;;;;;;;;;;;;;;;;;;;
2021/07/24 11:37:59;;;;;;;3.67;2.80;;;;;;;28.88;40.75;100850.38;128073;1086;64395;-85
2021/07/24 11:40:39;;;;;;;5.30;3.00;;;;;;;28.89;40.83;100852.06;128019;1086;64281;-85
2021/07/24 11:43:08;;;;;;;4.47;2.90;;;;;;;28.88;40.78;100847.66;128081;1087;64395;-84
2021/07/24 11:45:44;;;;;;;4.53;3.17;;;;;;;28.89;40.90;100845.78;128368;1087;64019;-84
2021/07/24 11:48:34;;;;;;;4.50;2.90;;;;;;;28.88;40.61;100850.38;128048;1087;64240;-83
2021/07/24 11:51:16;;;;;;;5.40;2.87;;;;;;;28.87;40.51;100851.38;128021;1087;64505;-84
2021/07/24 11:54:02;;;;;;;;;;;;;;;;;;;;;
2021/07/24 11:56:29;;;;;;;4.00;3.10;;;;;;;28.87;40.46;100851.38;128378;1087;64115;-84
2021/07/24 11:59:12;;;;;;;4.10;2.60;;;;;;;28.88;40.73;100835.92;128038;1086;64189;-85
2021/07/24 12:01:41;;;;;;;5.60;2.90;;;;;;;28.86;40.69;100838.80;128022;1086;64131;-85
2021/07/24 12:04:19;;;;;;;4.43;2.80;;;;;;;28.87;40.74;100847.83;128387;1087;64337;-85
2021/07/24 12:07:12;;;;;;;4.07;2.80;;;;;;;28.87;40.86;100839.67;128345;1087;64136;-85
2021/07/24 12:09:47;;;;;;;5.87;3.10;;;;;;;28.88;40.88;100835.92;128349;1087;64146;-84